createdAt,value
2019-05-13T00:00:34.225Z,1.27
2019-05-13T00:03:03.900Z,1.95
2019-05-13T00:05:33.875Z,1.77
2019-05-13T00:08:03.497Z,1.55
2019-05-13T00:10:34.730Z,1.92
2019-05-13T00:13:04.493Z,1.70
2019-05-13T00:15:34.078Z,1.65
2019-05-13T00:18:03.975Z,1.42
2019-05-13T00:20:33.743Z,1.72
2019-05-13T00:23:03.969Z,2.05
2019-05-13T00:25:33.961Z,1.32
2019-05-13T00:28:04.067Z,1.60
2019-05-13T00:30:34.074Z,1.20
2019-05-13T00:33:04.006Z,1.35
2019-05-13T00:35:33.945Z,1.30
2019-05-13T00:38:03.949Z,1.65
2019-05-13T00:40:33.895Z,1.95
2019-05-13T00:43:03.929Z,1.67
2019-05-13T00:45:33.846Z,1.55
2019-05-13T00:48:04.523Z,1.35
2019-05-13T00:50:34.118Z,1.45
2019-05-13T00:53:04.315Z,1.80
2019-05-13T00:55:34.519Z,1.32
2019-05-13T00:58:04.582Z,1.35
2019-05-13T01:00:34.345Z,1.70
2019-05-13T01:03:04.052Z,1.82
2019-05-13T01:05:33.941Z,2.10
2019-05-13T01:08:04.179Z,1.67
2019-05-13T01:10:34.558Z,1.75
2019-05-13T01:13:04.729Z,1.75
2019-05-13T01:15:34.514Z,1.70
2019-05-13T01:18:03.981Z,1.67
2019-05-13T01:20:34.398Z,1.27
2019-05-13T01:23:04.132Z,1.70
2019-05-13T01:25:34.483Z,1.60
2019-05-13T01:28:04.630Z,1.40
2019-05-13T01:30:34.579Z,1.25
2019-05-13T01:33:04.348Z,1.75
2019-05-13T01:35:34.290Z,1.95
2019-05-13T01:38:04.645Z,1.62
2019-05-13T01:40:34.832Z,1.82
2019-05-13T01:43:03.955Z,1.85
2019-05-13T01:45:33.855Z,1.92
2019-05-13T01:48:07.153Z,1.42
2019-05-13T01:50:34.035Z,1.00
2019-05-13T01:53:04.175Z,0.68
2019-05-13T01:55:33.968Z,0.60
2019-05-13T01:58:04.252Z,0.60
2019-05-13T02:00:35.449Z,0.37
2019-05-13T02:03:04.568Z,0.20
2019-05-13T02:05:33.903Z,0.30
2019-05-13T02:08:04.495Z,0.28
2019-05-13T02:10:53.956Z,0.28
2019-05-13T02:13:24.399Z,0.15
2019-05-13T02:15:54.970Z,0.20
2019-05-13T02:18:24.646Z,0.30
2019-05-13T02:20:55.286Z,0.30
2019-05-13T02:23:24.277Z,0.25
2019-05-13T02:25:54.433Z,0.42
2019-05-13T02:28:24.947Z,0.37
2019-05-13T02:30:56.275Z,0.23
2019-05-13T02:33:24.085Z,0.10
2019-05-13T02:35:53.478Z,0.30
2019-05-13T02:38:29.535Z,0.37
2019-05-13T02:40:53.348Z,0.45
2019-05-13T02:43:23.810Z,0.40
2019-05-13T02:45:54.014Z,0.20
2019-05-13T02:48:23.849Z,0.20
2019-05-13T02:50:53.945Z,0.17
2019-05-13T02:53:23.893Z,0.30
2019-05-13T02:55:53.636Z,0.20
2019-05-13T02:58:24.189Z,0.10
2019-05-13T03:00:53.837Z,0.30
2019-05-13T03:03:23.750Z,0.30
2019-05-13T03:05:53.864Z,0.10
2019-05-13T03:08:39.326Z,0.20
2019-05-13T03:10:53.848Z,0.30
2019-05-13T03:13:23.996Z,0.20
2019-05-13T03:15:54.699Z,0.10
2019-05-13T03:18:23.366Z,0.40
2019-05-13T03:20:52.907Z,0.50
2019-05-13T03:23:22.855Z,0.23
2019-05-13T03:25:53.643Z,0.20
2019-05-13T03:28:22.584Z,0.20
2019-05-13T03:30:56.185Z,0.30
2019-05-13T03:33:27.852Z,0.10
2019-05-13T03:35:55.799Z,0.20
2019-05-13T03:38:23.395Z,0.10
2019-05-13T03:40:54.512Z,0.40
2019-05-13T03:43:24.849Z,0.30
2019-05-13T03:45:55.418Z,0.30
2019-05-13T03:48:24.068Z,0.20
2019-05-13T03:50:53.528Z,0.17
2019-05-13T03:53:23.367Z,0.30
2019-05-13T03:55:54.076Z,0.20
2019-05-13T03:58:23.848Z,0.20
2019-05-13T04:00:52.856Z,0.40
2019-05-13T04:03:22.773Z,0.35
2019-05-13T04:05:52.911Z,0.20
2019-05-13T04:08:22.929Z,0.20
2019-05-13T04:10:52.631Z,0.23
2019-05-13T04:13:23.320Z,0.30
2019-05-13T04:15:53.010Z,0.30
2019-05-13T04:18:23.424Z,0.28
2019-05-13T04:20:53.186Z,0.15
2019-05-13T04:23:23.367Z,0.28
2019-05-13T04:25:53.781Z,0.50
2019-05-13T04:28:22.771Z,0.17
2019-05-13T04:30:58.970Z,0.30
2019-05-13T04:33:28.035Z,0.53
2019-05-13T04:35:56.696Z,0.33
2019-05-13T04:38:25.415Z,0.33
2019-05-13T04:40:54.231Z,0.35
2019-05-13T04:43:23.822Z,0.37
2019-05-13T04:45:53.028Z,0.55
2019-05-13T04:48:22.843Z,0.40
2019-05-13T04:50:53.280Z,0.50
2019-05-13T04:53:22.916Z,0.50
2019-05-13T04:55:52.872Z,0.33
2019-05-13T04:58:23.482Z,0.30
2019-05-13T05:01:16.617Z,0.23
2019-05-13T05:03:53.884Z,0.30
2019-05-13T05:06:38.104Z,0.28
2019-05-13T05:11:46.695Z,0.53
2019-05-13T05:14:38.070Z,0.60
2019-05-13T05:17:24.530Z,0.23
2019-05-13T05:19:59.277Z,0.55
2019-05-13T05:22:41.974Z,0.53
2019-05-13T05:25:13.497Z,0.30
2019-05-13T05:28:03.534Z,0.30
2019-05-13T05:30:58.239Z,0.50
2019-05-13T05:33:46.219Z,0.55
2019-05-13T05:36:42.409Z,0.40
2019-05-13T05:39:23.453Z,0.40
2019-05-13T05:41:54.882Z,0.50
2019-05-13T05:44:26.967Z,0.72
2019-05-13T05:46:58.400Z,0.60
2019-05-13T05:49:27.491Z,0.55
2019-05-13T05:52:08.802Z,0.70
2019-05-13T05:54:51.431Z,0.50
2019-05-13T05:57:19.319Z,0.80
2019-05-13T05:59:51.726Z,1.15
2019-05-13T06:02:23.071Z,0.80
2019-05-13T06:04:54.582Z,1.10
2019-05-13T06:07:23.572Z,0.88
2019-05-13T06:09:52.471Z,1.00
2019-05-13T06:12:21.758Z,1.70
2019-05-13T06:14:52.458Z,0.70
2019-05-13T06:17:22.425Z,1.15
2019-05-13T06:19:51.363Z,1.80
2019-05-13T06:22:21.671Z,1.45
2019-05-13T06:24:52.142Z,1.27
2019-05-13T06:27:21.794Z,1.47
2019-05-13T06:29:52.886Z,1.35
2019-05-13T06:32:25.384Z,1.00
2019-05-13T06:34:53.221Z,1.15
2019-05-13T06:37:22.297Z,1.37
2019-05-13T06:39:51.303Z,1.52
2019-05-13T06:42:22.237Z,1.95
2019-05-13T06:44:51.433Z,1.60
2019-05-13T06:47:23.218Z,1.32
2019-05-13T06:49:51.894Z,2.02
2019-05-13T06:52:21.199Z,1.17
2019-05-13T06:54:52.026Z,1.40
2019-05-13T06:57:21.999Z,1.20
2019-05-13T06:59:52.385Z,1.20
2019-05-13T07:02:21.758Z,1.27
2019-05-13T07:04:52.837Z,0.95
2019-05-13T07:07:22.080Z,1.45
2019-05-13T07:09:51.665Z,0.88
2019-05-13T07:12:21.899Z,1.22
2019-05-13T07:14:51.760Z,0.85
2019-05-13T07:17:22.331Z,1.15
2019-05-13T07:19:51.774Z,1.10
2019-05-13T07:22:22.946Z,1.50
2019-05-13T07:24:52.484Z,1.15
2019-05-13T07:27:22.891Z,0.90
2019-05-13T07:29:55.359Z,1.47
2019-05-13T07:32:22.328Z,0.60
2019-05-13T07:34:53.197Z,0.50
2019-05-13T07:37:22.091Z,0.40
2019-05-13T07:39:52.982Z,0.42
2019-05-13T07:42:22.197Z,0.10
2019-05-13T07:44:52.182Z,0.40
2019-05-13T07:47:25.658Z,0.20
2019-05-13T07:49:54.426Z,0.42
2019-05-13T07:52:23.060Z,0.40
2019-05-13T07:54:52.142Z,0.72
2019-05-13T07:57:21.470Z,0.30
2019-05-13T07:59:52.367Z,0.40
2019-05-13T08:02:21.721Z,0.75
2019-05-13T08:04:52.939Z,0.37
2019-05-13T08:07:22.637Z,0.40
2019-05-13T08:09:52.653Z,0.25
2019-05-13T08:12:21.801Z,0.50
2019-05-13T08:14:52.181Z,0.10
2019-05-13T08:17:22.522Z,0.20
2019-05-13T08:19:52.062Z,0.40
2019-05-13T08:22:22.094Z,0.70
2019-05-13T08:24:54.146Z,0.50
2019-05-13T08:27:30.030Z,0.23
2019-05-13T08:29:52.173Z,0.30
2019-05-13T08:32:22.117Z,0.25
2019-05-13T08:34:54.281Z,0.20
2019-05-13T08:37:21.762Z,0.40
2019-05-13T08:39:52.188Z,0.25
2019-05-13T08:42:23.480Z,0.25
2019-05-13T08:44:52.258Z,0.40
2019-05-13T08:47:22.381Z,0.40
2019-05-13T08:49:52.080Z,0.40
2019-05-13T08:52:21.901Z,0.42
2019-05-13T08:54:52.505Z,0.30
2019-05-13T08:57:22.182Z,0.42
2019-05-13T08:59:51.691Z,0.80
2019-05-13T09:02:22.121Z,0.30
2019-05-13T09:04:51.581Z,0.20
2019-05-13T09:07:24.105Z,0.23
2019-05-13T09:09:51.501Z,0.20
2019-05-13T09:12:32.165Z,0.30
2019-05-13T09:14:52.508Z,0.20
2019-05-13T09:17:21.432Z,0.40
2019-05-13T09:19:52.030Z,0.33
2019-05-13T09:22:21.325Z,0.50
2019-05-13T09:24:52.838Z,0.40
2019-05-13T09:27:22.554Z,0.25
2019-05-13T09:29:51.827Z,0.35
2019-05-13T09:32:21.513Z,0.20
2019-05-13T09:34:52.497Z,0.35
2019-05-13T09:37:22.431Z,0.30
2019-05-13T09:39:51.814Z,0.17
2019-05-13T09:42:21.764Z,0.35
2019-05-13T09:44:52.488Z,0.30
2019-05-13T09:47:21.710Z,0.20
2019-05-13T09:49:50.687Z,0.60
2019-05-13T09:52:19.408Z,0.60
2019-05-13T09:54:48.091Z,0.33
2019-05-13T09:57:16.714Z,0.50
2019-05-13T09:59:45.886Z,0.53
2019-05-13T10:02:14.557Z,0.60
2019-05-13T10:04:43.896Z,0.53
2019-05-13T10:07:12.908Z,0.53
2019-05-13T10:09:42.957Z,0.80
2019-05-13T10:12:12.306Z,0.80
2019-05-13T10:14:41.183Z,0.55
2019-05-13T10:17:09.842Z,0.90
2019-05-13T10:19:38.570Z,0.80
2019-05-13T10:22:07.300Z,0.30
2019-05-13T10:24:36.189Z,0.35
2019-05-13T10:27:04.999Z,0.47
2019-05-13T10:29:34.297Z,0.47
2019-05-13T10:32:04.251Z,0.30
2019-05-13T10:34:34.346Z,0.20
2019-05-13T10:37:03.340Z,0.65
2019-05-13T10:39:32.062Z,0.80
2019-05-13T10:42:03.679Z,1.05
2019-05-13T10:44:31.075Z,0.37
2019-05-13T10:47:00.062Z,0.30
2019-05-13T10:49:32.730Z,0.30
2019-05-13T10:52:02.875Z,0.57
2019-05-13T10:54:32.470Z,0.28
2019-05-13T10:57:03.865Z,0.30
2019-05-13T10:59:31.449Z,0.35
2019-05-13T11:02:02.266Z,0.40
2019-05-13T11:04:32.657Z,0.20
2019-05-13T11:07:02.929Z,0.60
2019-05-13T11:09:32.530Z,0.62
2019-05-13T11:12:02.218Z,0.20
2019-05-13T11:14:32.350Z,0.28
2019-05-13T11:17:01.762Z,0.50
2019-05-13T11:19:36.211Z,0.68
2019-05-13T11:22:02.844Z,0.95
2019-05-13T11:24:32.485Z,0.50
2019-05-13T11:27:02.811Z,0.50
2019-05-13T11:29:32.565Z,0.40
2019-05-13T11:32:02.695Z,0.40
2019-05-13T11:34:32.892Z,0.72
2019-05-13T11:37:03.581Z,0.37
2019-05-13T11:39:32.738Z,0.40
2019-05-13T11:42:02.313Z,0.30
2019-05-13T11:44:32.258Z,0.23
2019-05-13T11:47:02.324Z,0.57
2019-05-13T11:49:31.802Z,0.50
2019-05-13T11:52:02.698Z,0.53
2019-05-13T11:54:31.015Z,0.40
2019-05-13T11:57:02.564Z,0.57
2019-05-13T11:59:33.155Z,0.42
2019-05-13T12:02:04.612Z,0.40
2019-05-13T12:07:03.981Z,0.60
2019-05-13T12:09:32.691Z,0.40
2019-05-13T12:12:03.249Z,0.45
2019-05-13T12:17:05.186Z,0.60
2019-05-13T12:19:34.169Z,1.00
2019-05-13T12:22:03.085Z,1.07
2019-05-13T12:24:31.859Z,0.70
2019-05-13T12:27:03.676Z,0.65
2019-05-13T12:29:30.821Z,0.98
2019-05-13T12:32:03.036Z,2.52
2019-05-13T12:34:37.717Z,0.90
2019-05-13T12:37:03.160Z,1.07
2019-05-13T12:39:32.045Z,1.35
2019-05-13T12:42:03.454Z,1.00
2019-05-13T12:44:31.581Z,1.37
2019-05-13T12:47:03.336Z,1.50
2019-05-13T12:49:33.498Z,1.25
2019-05-13T12:52:04.274Z,1.25
2019-05-13T12:54:32.511Z,0.95
2019-05-13T12:57:03.594Z,1.00
2019-05-13T12:59:32.172Z,0.65
2019-05-13T13:02:03.221Z,0.75
2019-05-13T13:04:33.489Z,0.50
2019-05-13T13:07:01.784Z,1.20
2019-05-13T13:09:33.423Z,1.15
2019-05-13T13:12:00.822Z,0.70
2019-05-13T13:14:36.275Z,2.00
2019-05-13T13:17:04.124Z,1.17
2019-05-13T13:19:34.094Z,1.37
2019-05-13T13:22:04.816Z,0.80
2019-05-13T13:24:31.898Z,0.78
2019-05-13T13:27:00.594Z,1.22
2019-05-13T13:29:29.253Z,1.05
2019-05-13T13:31:58.005Z,2.02
2019-05-13T13:34:26.752Z,1.15
2019-05-13T13:36:55.413Z,0.88
2019-05-13T13:39:25.464Z,0.93
2019-05-13T13:41:54.501Z,0.80
2019-05-13T13:44:24.634Z,0.68
2019-05-13T13:46:54.731Z,0.80
2019-05-13T13:49:23.940Z,0.78
2019-05-13T13:51:52.600Z,1.35
2019-05-13T13:54:22.488Z,0.72
2019-05-13T13:56:55.938Z,0.68
2019-05-13T13:59:24.762Z,0.60
2019-05-13T14:01:54.788Z,0.60
2019-05-13T14:04:22.747Z,0.70
2019-05-13T14:06:31.859Z,0.45
2019-05-13T14:06:59.605Z,1.00
2019-05-13T14:09:22.476Z,0.60
2019-05-13T14:11:51.651Z,1.05
2019-05-13T14:14:21.534Z,0.70
2019-05-13T14:16:51.831Z,0.68
2019-05-13T14:19:21.810Z,1.02
2019-05-13T14:21:52.547Z,1.00
2019-05-13T14:24:21.766Z,0.75
2019-05-13T14:26:52.346Z,0.75
2019-05-13T14:29:25.694Z,0.57
2019-05-13T14:31:52.144Z,0.53
2019-05-13T14:34:21.083Z,0.45
2019-05-13T14:36:51.636Z,0.75
2019-05-13T14:39:22.076Z,0.60
2019-05-13T14:41:51.592Z,0.45
2019-05-13T14:44:21.942Z,0.90
2019-05-13T14:46:52.350Z,1.15
2019-05-13T14:49:22.490Z,1.35
2019-05-13T14:51:51.949Z,1.50
2019-05-13T14:54:22.160Z,1.47
2019-05-13T14:56:52.019Z,1.92
2019-05-13T14:59:22.999Z,1.50
2019-05-13T15:01:52.004Z,2.08
2019-05-13T15:04:22.267Z,1.85
2019-05-13T15:06:51.330Z,1.75
2019-05-13T15:09:20.137Z,2.10
2019-05-13T15:11:52.877Z,1.50
2019-05-13T15:14:22.013Z,1.67
2019-05-13T15:17:02.217Z,2.33
2019-05-13T15:19:23.063Z,1.32
2019-05-13T15:21:52.215Z,1.35
2019-05-13T15:24:21.372Z,1.80
2019-05-13T15:26:51.737Z,2.10
2019-05-13T15:29:22.380Z,1.40
2019-05-13T15:31:51.537Z,1.22
2019-05-13T15:34:20.330Z,1.85
2019-05-13T15:36:50.778Z,1.30
2019-05-13T15:39:19.542Z,1.45
2019-05-13T15:41:48.202Z,1.22
2019-05-13T15:44:16.929Z,1.10
2019-05-13T15:46:45.676Z,1.50
2019-05-13T15:49:14.325Z,1.37
2019-05-13T15:51:42.990Z,2.00
2019-05-13T15:54:15.551Z,1.20
2019-05-13T15:56:42.555Z,1.30
2019-05-13T15:59:12.542Z,1.50
2019-05-13T16:01:41.646Z,1.67
2019-05-13T16:04:14.758Z,2.45
2019-05-13T16:06:43.524Z,2.77
2019-05-13T16:09:12.447Z,2.85
2019-05-13T16:11:41.561Z,3.08
2019-05-13T16:14:11.629Z,2.98
2019-05-13T16:16:41.660Z,3.20
2019-05-13T16:19:10.847Z,3.47
2019-05-13T16:21:44.562Z,3.02
2019-05-13T16:24:13.074Z,3.05
2019-05-13T16:26:42.691Z,3.02
2019-05-13T16:29:12.616Z,2.85
2019-05-13T16:31:41.755Z,3.60
2019-05-13T16:34:11.121Z,3.15
2019-05-13T16:36:43.833Z,6.12
2019-05-13T16:39:12.587Z,7.70
2019-05-13T16:41:42.694Z,11.35
2019-05-13T16:44:11.865Z,8.00
2019-05-13T16:46:42.505Z,5.78
2019-05-13T16:49:12.256Z,4.60
2019-05-13T16:51:42.578Z,5.42
2019-05-13T16:54:13.378Z,4.80
2019-05-13T16:56:42.363Z,3.12
2019-05-13T16:59:11.159Z,3.42
2019-05-13T17:01:41.919Z,2.33
2019-05-13T17:04:12.358Z,2.58
2019-05-13T17:06:41.622Z,2.40
2019-05-13T17:09:11.520Z,2.77
2019-05-13T17:11:41.514Z,2.72
2019-05-13T17:14:10.489Z,3.60
2019-05-13T17:16:41.207Z,2.80
2019-05-13T17:19:11.864Z,2.75
2019-05-13T17:21:41.109Z,3.10
2019-05-13T17:24:12.415Z,2.62
2019-05-13T17:26:41.820Z,2.85
2019-05-13T17:29:12.036Z,3.47
2019-05-13T17:31:41.649Z,2.62
2019-05-13T17:34:12.137Z,2.45
2019-05-13T17:36:41.891Z,2.00
2019-05-13T17:39:12.504Z,2.50
2019-05-13T17:41:41.548Z,3.00
2019-05-13T17:44:11.600Z,4.03
2019-05-13T17:46:41.820Z,3.35
2019-05-13T17:49:11.778Z,3.20
2019-05-13T17:51:42.560Z,3.15
2019-05-13T17:54:11.968Z,3.30
2019-05-13T17:56:40.784Z,3.87
2019-05-13T17:59:11.502Z,3.37
2019-05-13T18:01:41.227Z,2.98
2019-05-13T18:04:11.807Z,3.50
2019-05-13T18:06:41.732Z,3.30
2019-05-13T18:09:12.286Z,2.83
2019-05-13T18:11:41.762Z,3.67
2019-05-13T18:14:12.940Z,2.98
2019-05-13T18:16:41.951Z,2.80
2019-05-13T18:19:11.983Z,3.10
2019-05-13T18:21:42.462Z,2.95
2019-05-13T18:24:12.034Z,3.30
2019-05-13T18:26:41.800Z,3.08
2019-05-13T18:29:12.330Z,2.58
2019-05-13T18:31:42.013Z,3.30
2019-05-13T18:34:12.220Z,2.72
2019-05-13T18:36:42.770Z,3.27
2019-05-13T18:39:12.373Z,3.00
2019-05-13T18:41:41.516Z,2.37
2019-05-13T18:44:12.230Z,3.62
2019-05-13T18:46:41.782Z,2.87
2019-05-13T18:49:11.998Z,3.00
2019-05-13T18:51:42.277Z,3.67
2019-05-13T18:54:12.021Z,4.12
2019-05-13T18:56:46.448Z,6.35
2019-05-13T18:59:14.253Z,5.95
2019-05-13T19:01:42.974Z,6.25
2019-05-13T19:04:11.697Z,5.70
2019-05-13T19:06:42.290Z,5.85
2019-05-13T19:09:11.332Z,5.42
2019-05-13T19:11:42.418Z,5.28
2019-05-13T19:14:12.391Z,4.83
2019-05-13T19:16:42.231Z,4.90
2019-05-13T19:19:15.903Z,3.72
2019-05-13T19:21:43.068Z,3.90
2019-05-13T19:24:13.374Z,3.08
2019-05-13T19:26:42.066Z,4.60
2019-05-13T19:29:11.484Z,4.20
2019-05-13T19:31:43.796Z,4.47
2019-05-13T19:34:14.421Z,3.83
2019-05-13T19:36:43.074Z,3.15
2019-05-13T19:39:11.799Z,4.12
2019-05-13T19:41:42.294Z,4.72
2019-05-13T19:44:11.158Z,3.35
2019-05-13T19:46:42.178Z,3.95
2019-05-13T19:49:12.316Z,3.55
2019-05-13T19:51:41.620Z,3.55
2019-05-13T19:54:11.744Z,4.25
2019-05-13T19:56:41.092Z,4.58
2019-05-13T19:59:14.824Z,4.42
2019-05-13T20:01:43.651Z,5.62
2019-05-13T20:04:12.458Z,4.42
2019-05-13T20:06:43.762Z,4.35
2019-05-13T20:09:12.951Z,5.45
2019-05-13T20:11:42.092Z,3.70
2019-05-13T20:14:12.183Z,4.12
2019-05-13T20:16:47.051Z,4.65
2019-05-13T20:19:15.790Z,4.65
2019-05-13T20:21:44.416Z,4.78
2019-05-13T20:24:13.387Z,4.65
2019-05-13T20:26:42.408Z,5.15
2019-05-13T20:29:12.829Z,4.90
2019-05-13T20:31:41.825Z,4.83
2019-05-13T20:34:11.842Z,5.05
2019-05-13T20:36:42.286Z,5.65
2019-05-13T20:39:11.599Z,5.65
2019-05-13T20:41:41.425Z,6.22
2019-05-13T20:44:10.642Z,5.10
2019-05-13T20:46:42.490Z,5.12
2019-05-13T20:49:11.983Z,6.37
2019-05-13T20:51:41.268Z,5.83
2019-05-13T20:54:11.352Z,6.35
2019-05-13T20:56:42.198Z,6.58
2019-05-13T20:59:10.835Z,6.47
2019-05-13T21:01:41.726Z,6.33
2019-05-13T21:04:12.184Z,5.58
2019-05-13T21:06:42.187Z,6.70
2019-05-13T21:09:14.679Z,6.65
2019-05-13T21:11:41.732Z,5.85
2019-05-13T21:14:10.751Z,7.40
2019-05-13T21:16:41.494Z,7.60
2019-05-13T21:19:12.235Z,7.55
2019-05-13T21:21:41.630Z,7.12
2019-05-13T21:24:10.657Z,6.80
2019-05-13T21:26:45.607Z,6.22
2019-05-13T21:29:11.089Z,7.15
2019-05-13T21:31:41.386Z,7.00
2019-05-13T21:34:11.843Z,6.85
2019-05-13T21:36:41.311Z,7.00
2019-05-13T21:39:12.236Z,7.28
2019-05-13T21:41:41.815Z,7.30
2019-05-13T21:44:11.989Z,7.10
2019-05-13T21:46:42.421Z,7.37
2019-05-13T21:49:11.889Z,8.35
2019-05-13T21:51:41.746Z,7.90
2019-05-13T21:54:11.785Z,7.40
2019-05-13T21:56:45.663Z,8.23
2019-05-13T21:59:14.390Z,8.00
2019-05-13T22:01:43.107Z,8.43
2019-05-13T22:04:12.421Z,7.62
2019-05-13T22:06:41.411Z,8.30
2019-05-13T22:09:11.865Z,9.18
2019-05-13T22:11:41.949Z,8.50
2019-05-13T22:14:11.583Z,8.13
2019-05-13T22:16:41.279Z,8.10
2019-05-13T22:19:12.220Z,8.30
2019-05-13T22:21:42.383Z,8.35
2019-05-13T22:24:11.855Z,7.70
2019-05-13T22:26:41.945Z,8.25
2019-05-13T22:29:10.904Z,7.87
2019-05-13T22:31:41.816Z,9.45
2019-05-13T22:34:12.163Z,8.33
2019-05-13T22:36:41.018Z,7.65
2019-05-13T22:39:11.528Z,8.10
2019-05-13T22:41:42.114Z,8.50
2019-05-13T22:44:11.621Z,8.30
2019-05-13T22:46:41.320Z,7.17
2019-05-13T22:49:11.587Z,7.67
2019-05-13T22:51:41.215Z,7.42
2019-05-13T22:54:11.970Z,7.35
2019-05-13T22:56:41.207Z,7.35
2019-05-13T22:59:12.242Z,6.42
2019-05-13T23:01:41.811Z,6.95
2019-05-13T23:04:11.436Z,6.35
2019-05-13T23:06:40.349Z,7.55
2019-05-13T23:09:09.072Z,6.70
2019-05-13T23:11:37.753Z,7.75
2019-05-13T23:14:10.118Z,7.03
2019-05-13T23:16:42.005Z,7.53
2019-05-13T23:19:11.108Z,6.47
2019-05-13T23:21:41.835Z,7.10
2019-05-13T23:24:11.344Z,6.78
2019-05-13T23:26:42.305Z,7.42
2019-05-13T23:29:10.456Z,5.72
2019-05-13T23:31:41.325Z,6.80
2019-05-13T23:34:11.834Z,6.78
2019-05-13T23:36:42.109Z,5.67
2019-05-13T23:39:11.658Z,7.35
2019-05-13T23:41:41.598Z,6.42
2019-05-13T23:44:23.679Z,6.90
2019-05-13T23:46:42.026Z,6.42
2019-05-13T23:49:11.898Z,7.03
2019-05-13T23:52:17.114Z,6.85
2019-05-13T23:54:45.887Z,6.65
2019-05-13T23:57:14.609Z,7.35
2019-05-13T23:59:43.417Z,7.05
